createdAt,value
2018-09-05T00:00:16.253Z,88.69
2018-09-05T00:02:44.595Z,89.79
2018-09-05T00:05:12.894Z,89.28
2018-09-05T00:07:41.236Z,90.10
2018-09-05T00:10:09.743Z,89.84
2018-09-05T00:12:38.118Z,89.37
2018-09-05T00:15:06.939Z,89.42
2018-09-05T00:17:35.287Z,88.37
2018-09-05T00:20:03.639Z,89.09
2018-09-05T00:22:31.988Z,89.83
2018-09-05T00:25:00.359Z,90.81
2018-09-05T00:27:28.676Z,91.21
2018-09-05T00:29:57.189Z,91.40
2018-09-05T00:32:25.563Z,90.97
2018-09-05T00:34:53.898Z,91.38
2018-09-05T00:37:22.429Z,92.00
2018-09-05T00:39:50.804Z,92.11
2018-09-05T00:42:19.254Z,91.76
2018-09-05T00:44:47.710Z,90.91
2018-09-05T00:47:16.103Z,90.34
2018-09-05T00:49:44.538Z,89.88
2018-09-05T00:52:12.850Z,89.49
2018-09-05T00:54:41.251Z,90.00
2018-09-05T00:57:09.611Z,90.15
2018-09-05T00:59:38.007Z,89.90
2018-09-05T01:02:06.378Z,89.86
2018-09-05T01:04:34.856Z,89.72
2018-09-05T01:07:34.443Z,89.85
2018-09-05T01:10:02.814Z,89.80
2018-09-05T01:12:32.032Z,89.43
2018-09-05T01:15:00.474Z,89.49
2018-09-05T01:17:29.128Z,90.22
2018-09-05T01:19:57.521Z,91.71
2018-09-05T01:22:25.975Z,92.29
2018-09-05T01:24:54.426Z,91.96
2018-09-05T01:27:22.854Z,92.54
2018-09-05T01:29:51.161Z,92.94
2018-09-05T01:32:19.514Z,92.71
2018-09-05T01:34:47.945Z,91.48
2018-09-05T01:37:16.287Z,91.68
2018-09-05T01:39:44.613Z,91.20
2018-09-05T01:42:12.942Z,90.93
2018-09-05T01:44:41.451Z,91.33
2018-09-05T01:47:09.766Z,90.12
2018-09-05T01:49:38.119Z,90.66
2018-09-05T01:52:06.486Z,90.39
2018-09-05T01:54:34.803Z,90.36
2018-09-05T01:57:03.138Z,90.14
2018-09-05T01:59:31.479Z,90.08
2018-09-05T02:01:59.983Z,90.32
2018-09-05T02:04:28.434Z,90.00
2018-09-05T02:06:56.763Z,90.17
2018-09-05T02:09:25.175Z,90.08
2018-09-05T02:11:53.535Z,89.47
2018-09-05T02:14:21.862Z,89.57
2018-09-05T02:16:50.199Z,89.37
2018-09-05T02:19:18.617Z,90.02
2018-09-05T02:21:46.950Z,90.39
2018-09-05T02:24:15.371Z,90.44
2018-09-05T02:26:43.867Z,90.14
2018-09-05T02:29:12.227Z,90.15
2018-09-05T02:31:40.635Z,90.28
2018-09-05T02:34:09.047Z,89.97
2018-09-05T02:36:37.375Z,90.83
2018-09-05T02:39:08.313Z,91.96
2018-09-05T02:41:36.690Z,92.41
2018-09-05T02:44:10.363Z,91.09
2018-09-05T02:46:38.659Z,90.84
2018-09-05T02:49:07.024Z,91.46
2018-09-05T02:51:35.343Z,90.85
2018-09-05T02:54:03.983Z,90.30
2018-09-05T02:56:32.275Z,89.62
2018-09-05T02:59:00.593Z,90.33
2018-09-05T03:01:28.954Z,90.61
2018-09-05T03:03:57.317Z,90.66
2018-09-05T03:06:25.650Z,90.48
2018-09-05T03:08:54.025Z,90.63
2018-09-05T03:11:22.346Z,91.26
2018-09-05T03:13:50.695Z,91.79
2018-09-05T03:16:19.015Z,91.27
2018-09-05T03:18:47.425Z,90.44
2018-09-05T03:21:15.768Z,90.17
2018-09-05T03:23:44.060Z,90.28
2018-09-05T03:26:12.401Z,90.42
2018-09-05T03:28:40.765Z,90.10
2018-09-05T03:31:09.281Z,91.12
2018-09-05T03:33:37.576Z,92.71
2018-09-05T03:36:05.925Z,92.53
2018-09-05T03:38:34.293Z,92.45
2018-09-05T03:41:02.692Z,91.85
2018-09-05T03:43:31.008Z,91.65
2018-09-05T03:45:59.361Z,91.59
2018-09-05T03:48:27.737Z,90.75
2018-09-05T03:50:56.078Z,91.12
2018-09-05T03:53:24.821Z,90.70
2018-09-05T03:55:53.952Z,90.36
2018-09-05T03:58:22.273Z,89.98
2018-09-05T04:00:50.643Z,90.26
2018-09-05T04:03:18.939Z,90.17
2018-09-05T04:05:47.247Z,90.96
2018-09-05T04:08:15.590Z,91.60
2018-09-05T04:10:43.940Z,91.46
2018-09-05T04:13:12.275Z,90.88
2018-09-05T04:15:40.632Z,90.31
2018-09-05T04:18:08.996Z,90.52
2018-09-05T04:20:37.358Z,89.27
2018-09-05T04:23:09.309Z,90.19
2018-09-05T04:25:40.313Z,90.21
2018-09-05T04:28:10.991Z,90.05
2018-09-05T04:30:42.098Z,90.47
2018-09-05T04:33:14.099Z,91.48
2018-09-05T04:35:45.100Z,91.95
2018-09-05T04:38:25.257Z,92.03
2018-09-05T04:40:57.798Z,93.12
2018-09-05T04:43:31.386Z,92.85
2018-09-05T04:46:02.962Z,92.60
2018-09-05T04:48:34.234Z,93.72
2018-09-05T04:51:06.128Z,94.21
2018-09-05T04:53:36.805Z,93.04
2018-09-05T04:56:09.285Z,92.23
2018-09-05T04:58:41.011Z,91.20
2018-09-05T05:01:11.465Z,90.57
2018-09-05T05:03:42.397Z,90.91
2018-09-05T05:06:14.386Z,90.83
2018-09-05T05:08:47.281Z,90.68
2018-09-05T05:11:21.461Z,90.48
2018-09-05T05:13:54.691Z,91.24
2018-09-05T05:16:28.069Z,91.03
2018-09-05T05:18:57.250Z,90.87
2018-09-05T05:21:26.200Z,90.42
2018-09-05T05:24:24.343Z,90.29
2018-09-05T05:27:19.541Z,90.19
2018-09-05T05:29:47.919Z,89.39
2018-09-05T05:32:16.276Z,89.09
2018-09-05T05:34:44.598Z,89.77
2018-09-05T05:37:12.987Z,90.23
2018-09-05T05:39:42.047Z,90.67
2018-09-05T05:42:10.383Z,90.99
2018-09-05T05:44:38.687Z,90.63
2018-09-05T05:47:07.026Z,90.56
2018-09-05T05:49:35.399Z,90.37
2018-09-05T05:52:03.852Z,90.21
2018-09-05T05:54:32.264Z,90.63
2018-09-05T05:57:00.654Z,90.33
2018-09-05T05:59:28.974Z,89.92
2018-09-05T06:01:57.331Z,89.68
2018-09-05T06:04:25.631Z,89.76
2018-09-05T06:06:54.055Z,89.66
2018-09-05T06:09:22.378Z,90.32
2018-09-05T06:11:50.727Z,89.63
2018-09-05T06:14:19.042Z,88.40
2018-09-05T06:16:47.419Z,87.62
2018-09-05T06:19:15.752Z,86.95
2018-09-05T06:21:44.073Z,86.53
2018-09-05T06:24:12.426Z,86.26
2018-09-05T06:26:40.864Z,86.53
2018-09-05T06:29:09.291Z,86.29
2018-09-05T06:31:37.804Z,84.84
2018-09-05T06:34:06.187Z,85.57
2018-09-05T06:36:34.595Z,85.44
2018-09-05T06:39:02.940Z,85.32
2018-09-05T06:42:05.339Z,84.52
2018-09-05T06:44:33.675Z,83.76
2018-09-05T06:47:02.029Z,84.02
2018-09-05T06:49:30.428Z,85.10
2018-09-05T06:51:58.832Z,84.87
2018-09-05T06:54:27.202Z,82.67
2018-09-05T06:56:55.629Z,82.18
2018-09-05T06:59:23.903Z,81.49
2018-09-05T07:01:52.228Z,81.17
2018-09-05T07:04:20.543Z,80.38
2018-09-05T07:06:49.033Z,80.32
2018-09-05T07:09:17.631Z,80.38
2018-09-05T07:11:46.020Z,80.31
2018-09-05T07:14:14.604Z,80.19
2018-09-05T07:16:42.886Z,79.89
2018-09-05T07:19:12.488Z,79.55
2018-09-05T07:21:40.845Z,79.53
2018-09-05T07:24:09.153Z,78.72
2018-09-05T07:26:37.950Z,78.71
2018-09-05T07:29:06.589Z,77.98
2018-09-05T07:31:34.930Z,77.42
2018-09-05T07:34:03.323Z,77.12
2018-09-05T07:36:31.716Z,77.03
2018-09-05T07:39:00.144Z,77.69
2018-09-05T07:41:28.525Z,77.05
2018-09-05T07:43:56.836Z,76.80
2018-09-05T07:46:25.163Z,76.74
2018-09-05T07:48:53.511Z,76.04
2018-09-05T07:51:21.816Z,75.43
2018-09-05T07:53:50.251Z,75.21
2018-09-05T07:56:18.803Z,74.70
2018-09-05T07:58:47.271Z,75.44
2018-09-05T08:01:15.605Z,75.34
2018-09-05T08:03:44.199Z,75.76
2018-09-05T08:06:12.643Z,74.55
2018-09-05T08:08:41.039Z,74.17
2018-09-05T08:11:09.325Z,74.02
2018-09-05T08:13:37.867Z,73.45
2018-09-05T08:16:06.543Z,73.94
2018-09-05T08:18:34.868Z,73.01
2018-09-05T08:21:03.197Z,72.57
2018-09-05T08:23:31.539Z,72.03
2018-09-05T08:25:59.823Z,71.18
2018-09-05T08:28:28.194Z,72.36
2018-09-05T08:30:56.550Z,72.25
2018-09-05T08:33:24.844Z,72.03
2018-09-05T08:35:53.364Z,72.73
2018-09-05T08:38:21.613Z,70.51
2018-09-05T08:40:50.765Z,69.23
2018-09-05T08:43:19.219Z,69.04
2018-09-05T08:45:47.866Z,69.46
2018-09-05T08:48:16.067Z,70.04
2018-09-05T08:50:44.325Z,69.42
2018-09-05T08:53:12.766Z,70.32
2018-09-05T08:55:41.103Z,68.65
2018-09-05T08:58:09.490Z,67.41
2018-09-05T09:00:37.886Z,67.15
2018-09-05T09:03:06.284Z,67.18
2018-09-05T09:05:34.724Z,68.24
2018-09-05T09:08:03.096Z,67.69
2018-09-05T09:10:31.449Z,67.29
2018-09-05T09:12:59.759Z,67.28
2018-09-05T09:15:28.038Z,66.70
2018-09-05T09:17:56.353Z,66.71
2018-09-05T09:20:24.667Z,67.71
2018-09-05T09:22:53.074Z,66.72
2018-09-05T09:25:21.407Z,65.88
2018-09-05T09:27:49.791Z,64.90
2018-09-05T09:30:18.103Z,65.15
2018-09-05T09:32:46.385Z,64.69
2018-09-05T09:35:14.759Z,63.98
2018-09-05T09:37:43.049Z,65.25
2018-09-05T09:40:11.450Z,63.63
2018-09-05T09:42:39.734Z,64.86
2018-09-05T09:45:08.070Z,65.14
2018-09-05T09:47:36.383Z,63.67
2018-09-05T09:50:04.799Z,64.45
2018-09-05T09:52:37.369Z,63.44
2018-09-05T09:55:07.049Z,62.47
2018-09-05T09:57:35.403Z,63.12
2018-09-05T10:00:03.769Z,63.88
2018-09-05T10:02:37.635Z,62.36
2018-09-05T10:05:11.435Z,59.46
2018-09-05T10:07:45.118Z,60.30
2018-09-05T10:10:19.093Z,57.94
2018-09-05T10:12:49.907Z,59.34
2018-09-05T10:15:23.456Z,59.53
2018-09-05T10:17:57.051Z,58.82
2018-09-05T10:20:25.430Z,58.16
2018-09-05T10:22:53.820Z,57.68
2018-09-05T10:25:22.158Z,59.36
2018-09-05T10:27:50.468Z,57.43
2018-09-05T10:30:18.783Z,58.17
2018-09-05T10:32:47.135Z,57.19
2018-09-05T10:35:15.436Z,56.67
2018-09-05T10:37:43.746Z,55.38
2018-09-05T10:40:12.042Z,56.22
2018-09-05T10:42:40.366Z,55.01
2018-09-05T10:45:08.665Z,54.37
2018-09-05T10:47:36.959Z,55.29
2018-09-05T10:50:05.255Z,54.98
2018-09-05T10:52:33.565Z,55.36
2018-09-05T10:55:01.882Z,55.29
2018-09-05T10:57:30.220Z,54.61
2018-09-05T10:59:58.652Z,54.60
2018-09-05T11:02:27.054Z,54.58
2018-09-05T11:04:55.363Z,53.78
2018-09-05T11:07:23.709Z,54.07
2018-09-05T11:09:52.032Z,52.63
2018-09-05T11:12:20.348Z,52.23
2018-09-05T11:14:48.713Z,53.25
2018-09-05T11:17:17.018Z,53.88
2018-09-05T11:19:45.390Z,53.57
2018-09-05T11:22:13.730Z,52.29
2018-09-05T11:24:42.068Z,51.78
2018-09-05T11:27:10.511Z,50.79
2018-09-05T11:29:39.072Z,50.79
2018-09-05T11:32:08.109Z,50.40
2018-09-05T11:34:36.640Z,50.86
2018-09-05T11:37:05.308Z,50.88
2018-09-05T11:39:33.790Z,50.44
2018-09-05T11:42:02.203Z,52.41
2018-09-05T11:44:30.575Z,50.63
2018-09-05T11:46:58.888Z,51.16
2018-09-05T11:49:27.311Z,51.24
2018-09-05T11:51:55.641Z,49.60
2018-09-05T11:54:24.086Z,50.61
2018-09-05T11:56:52.546Z,49.00
2018-09-05T11:59:20.958Z,48.08
2018-09-05T12:01:49.298Z,50.30
2018-09-05T12:04:17.645Z,48.83
2018-09-05T12:06:46.034Z,48.61
2018-09-05T12:09:14.454Z,48.11
2018-09-05T12:11:42.963Z,47.74
2018-09-05T12:14:11.496Z,48.55
2018-09-05T12:16:39.871Z,46.69
2018-09-05T12:19:08.535Z,47.62
2018-09-05T12:21:37.245Z,47.03
2018-09-05T12:24:05.578Z,47.05
2018-09-05T12:26:34.081Z,48.01
2018-09-05T12:29:04.287Z,47.33
2018-09-05T12:31:32.890Z,47.37
2018-09-05T12:34:01.227Z,47.30
2018-09-05T12:36:29.717Z,46.25
2018-09-05T12:38:58.062Z,45.25
2018-09-05T12:41:26.386Z,44.34
2018-09-05T12:43:54.794Z,43.39
2018-09-05T12:46:23.157Z,45.31
2018-09-05T12:48:51.460Z,44.34
2018-09-05T12:51:19.834Z,44.24
2018-09-05T12:53:48.164Z,44.58
2018-09-05T12:56:16.624Z,45.47
2018-09-05T12:58:44.945Z,46.50
2018-09-05T13:01:13.352Z,43.86
2018-09-05T13:03:41.762Z,42.56
2018-09-05T13:06:10.126Z,42.17
2018-09-05T13:08:38.454Z,42.89
2018-09-05T13:11:06.855Z,43.46
2018-09-05T13:13:35.167Z,43.10
2018-09-05T13:16:03.577Z,43.40
2018-09-05T13:18:31.899Z,42.94
2018-09-05T13:21:00.901Z,43.86
2018-09-05T13:23:29.258Z,42.03
2018-09-05T13:25:57.539Z,42.87
2018-09-05T13:28:25.890Z,42.04
2018-09-05T13:30:54.277Z,42.10
2018-09-05T13:33:22.706Z,40.75
2018-09-05T13:35:51.078Z,40.94
2018-09-05T13:38:19.386Z,39.99
2018-09-05T13:40:47.745Z,37.71
2018-09-05T13:43:16.094Z,39.79
2018-09-05T13:45:44.471Z,41.45
2018-09-05T13:48:12.897Z,41.35
2018-09-05T13:50:41.417Z,39.34
2018-09-05T13:53:09.927Z,38.45
2018-09-05T13:55:38.426Z,39.93
2018-09-05T13:58:06.860Z,41.50
2018-09-05T14:00:35.407Z,39.81
2018-09-05T14:03:03.746Z,37.56
2018-09-05T14:05:32.124Z,37.61
2018-09-05T14:08:00.880Z,37.89
2018-09-05T14:10:29.351Z,38.76
2018-09-05T14:12:57.657Z,39.18
2018-09-05T14:15:26.231Z,35.41
2018-09-05T14:17:54.825Z,36.39
2018-09-05T14:20:23.312Z,37.51
2018-09-05T14:22:51.777Z,37.89
2018-09-05T14:25:20.338Z,38.83
2018-09-05T14:27:48.712Z,39.15
2018-09-05T14:30:17.328Z,39.77
2018-09-05T14:32:45.687Z,38.10
2018-09-05T14:35:14.400Z,38.02
2018-09-05T14:37:42.730Z,37.26
2018-09-05T14:40:11.284Z,34.82
2018-09-05T14:42:39.490Z,34.54
2018-09-05T14:45:08.026Z,36.55
2018-09-05T14:47:36.461Z,36.56
2018-09-05T14:50:05.220Z,35.93
2018-09-05T14:52:33.718Z,34.51
2018-09-05T14:55:02.310Z,36.11
2018-09-05T14:57:31.005Z,34.56
2018-09-05T14:59:59.482Z,35.22
2018-09-05T15:02:27.894Z,35.46
2018-09-05T15:04:56.534Z,34.23
2018-09-05T15:07:25.126Z,38.43
2018-09-05T15:09:53.660Z,38.73
2018-09-05T15:12:22.102Z,38.67
2018-09-05T15:14:50.466Z,39.67
2018-09-05T15:17:18.966Z,39.77
2018-09-05T15:19:47.407Z,38.65
2018-09-05T15:22:15.962Z,39.71
2018-09-05T15:24:44.270Z,39.48
2018-09-05T15:27:12.549Z,40.38
2018-09-05T15:29:40.952Z,41.00
2018-09-05T15:32:09.490Z,41.12
2018-09-05T15:34:37.998Z,38.68
2018-09-05T15:37:06.420Z,39.63
2018-09-05T15:39:34.869Z,38.90
2018-09-05T15:42:03.418Z,38.80
2018-09-05T15:44:31.880Z,38.65
2018-09-05T15:47:00.262Z,37.27
2018-09-05T15:49:28.668Z,38.02
2018-09-05T15:51:57.146Z,37.48
2018-09-05T15:54:26.698Z,36.38
2018-09-05T15:56:55.068Z,38.86
2018-09-05T15:59:24.077Z,34.07
2018-09-05T16:01:53.408Z,38.96
2018-09-05T16:04:21.714Z,38.34
2018-09-05T16:06:50.066Z,38.76
2018-09-05T16:09:18.409Z,38.65
2018-09-05T16:11:46.876Z,38.73
2018-09-05T16:14:15.222Z,39.95
2018-09-05T16:16:43.688Z,41.05
2018-09-05T16:19:11.963Z,40.86
2018-09-05T16:21:40.365Z,38.63
2018-09-05T16:24:08.762Z,40.45
2018-09-05T16:26:37.114Z,39.55
2018-09-05T16:29:05.458Z,39.47
2018-09-05T16:31:35.430Z,40.46
2018-09-05T16:34:04.491Z,40.60
2018-09-05T16:36:32.903Z,40.50
2018-09-05T16:39:03.443Z,41.10
2018-09-05T16:41:32.118Z,40.71
2018-09-05T16:44:01.731Z,42.37
2018-09-05T16:46:31.767Z,39.53
2018-09-05T16:49:02.683Z,40.08
2018-09-05T16:51:32.680Z,40.37
2018-09-05T16:54:03.282Z,41.77
2018-09-05T16:56:34.799Z,43.56
2018-09-05T16:59:06.046Z,42.66
2018-09-05T17:01:38.403Z,41.52
2018-09-05T17:04:10.268Z,42.46
2018-09-05T17:06:40.908Z,42.38
2018-09-05T17:09:13.134Z,44.44
2018-09-05T17:11:43.879Z,45.02
2018-09-05T17:14:15.646Z,46.14
2018-09-05T17:16:46.200Z,46.97
2018-09-05T17:19:18.010Z,46.16
2018-09-05T17:21:48.089Z,46.49
2018-09-05T17:24:20.491Z,46.70
2018-09-05T17:26:51.136Z,48.08
2018-09-05T17:29:21.101Z,48.30
2018-09-05T17:31:52.442Z,49.64
2018-09-05T17:34:23.995Z,50.88
2018-09-05T17:36:56.875Z,52.08
2018-09-05T17:39:29.685Z,51.49
2018-09-05T17:42:05.209Z,52.00
2018-09-05T17:44:33.798Z,53.29
2018-09-05T17:47:02.404Z,55.19
2018-09-05T17:49:30.804Z,55.83
2018-09-05T17:51:59.132Z,55.88
2018-09-05T17:54:29.278Z,57.42
2018-09-05T17:56:57.654Z,56.91
2018-09-05T17:59:26.075Z,57.24
2018-09-05T18:01:54.512Z,58.11
2018-09-05T18:04:27.091Z,58.66
2018-09-05T18:06:57.599Z,59.67
2018-09-05T18:09:31.400Z,59.81
2018-09-05T18:15:01.438Z,60.28
2018-09-05T18:17:34.851Z,59.87
2018-09-05T18:20:05.505Z,60.62
2018-09-05T18:22:35.808Z,61.09
2018-09-05T18:25:07.184Z,62.53
2018-09-05T18:27:37.876Z,62.01
2018-09-05T18:30:09.875Z,63.48
2018-09-05T18:32:41.151Z,63.95
2018-09-05T18:35:11.595Z,64.25
2018-09-05T18:37:41.218Z,63.83
2018-09-05T18:40:12.526Z,65.48
2018-09-05T18:42:42.613Z,65.28
2018-09-05T18:45:13.381Z,65.91
2018-09-05T18:47:43.866Z,66.86
2018-09-05T18:50:15.958Z,65.96
2018-09-05T18:52:47.273Z,67.09
2018-09-05T18:55:17.952Z,66.58
2018-09-05T18:57:49.413Z,66.90
2018-09-05T19:00:20.059Z,66.85
2018-09-05T19:02:50.846Z,68.17
2018-09-05T19:05:20.954Z,68.32
2018-09-05T19:07:53.206Z,68.66
2018-09-05T19:10:23.488Z,68.89
2018-09-05T19:12:55.022Z,69.56
2018-09-05T19:15:26.298Z,69.70
2018-09-05T19:17:57.269Z,69.97
2018-09-05T19:20:28.374Z,69.20
2018-09-05T19:22:59.438Z,70.50
2018-09-05T19:25:30.768Z,70.12
2018-09-05T19:28:01.036Z,70.44
2018-09-05T19:30:32.131Z,69.70
2018-09-05T19:33:01.968Z,69.72
2018-09-05T19:35:32.114Z,70.93
2018-09-05T19:38:03.166Z,70.37
2018-09-05T19:40:34.142Z,70.77
2018-09-05T19:43:05.500Z,71.05
2018-09-05T19:45:36.866Z,71.90
2018-09-05T19:48:07.705Z,71.55
2018-09-05T19:50:39.444Z,71.31
2018-09-05T19:53:11.139Z,71.63
2018-09-05T19:55:43.996Z,71.72
2018-09-05T19:58:16.498Z,72.82
2018-09-05T20:00:46.972Z,71.85
2018-09-05T20:03:18.295Z,72.61
2018-09-05T20:05:49.044Z,73.08
2018-09-05T20:08:19.858Z,72.89
2018-09-05T20:10:53.248Z,72.53
2018-09-05T20:13:25.564Z,72.98
2018-09-05T20:15:59.483Z,72.68
2018-09-05T20:18:35.495Z,73.59
2018-09-05T20:21:06.140Z,73.76
2018-09-05T20:23:35.399Z,72.97
2018-09-05T20:26:03.974Z,73.28
2018-09-05T20:28:32.568Z,73.82
2018-09-05T20:31:01.057Z,74.19
2018-09-05T20:33:29.958Z,74.12
2018-09-05T20:35:58.503Z,74.32
2018-09-05T20:38:26.956Z,74.50
2018-09-05T20:40:55.237Z,75.55
2018-09-05T20:43:23.961Z,74.52
2018-09-05T20:45:52.350Z,75.36
2018-09-05T20:48:20.843Z,74.67
2018-09-05T20:50:49.193Z,74.89
2018-09-05T20:53:18.939Z,75.08
2018-09-05T20:55:47.277Z,75.25
2018-09-05T20:58:15.658Z,75.47
2018-09-05T21:00:43.966Z,76.96
2018-09-05T21:03:12.737Z,77.37
2018-09-05T21:05:41.071Z,76.84
2018-09-05T21:08:10.080Z,76.56
2018-09-05T21:10:38.758Z,76.69
2018-09-05T21:13:07.057Z,75.81
2018-09-05T21:15:35.390Z,76.16
2018-09-05T21:18:03.775Z,76.33
2018-09-05T21:20:32.062Z,76.42
2018-09-05T21:23:00.799Z,76.63
2018-09-05T21:25:29.426Z,77.31
2018-09-05T21:27:57.768Z,76.84
2018-09-05T21:30:26.157Z,77.43
2018-09-05T21:32:54.505Z,77.72
2018-09-05T21:35:22.860Z,77.79
2018-09-05T21:37:51.221Z,77.96
2018-09-05T21:40:19.555Z,78.59
2018-09-05T21:42:47.961Z,79.08
2018-09-05T21:45:16.286Z,79.25
2018-09-05T21:47:44.578Z,78.75
2018-09-05T21:50:12.915Z,78.91
2018-09-05T21:52:41.295Z,78.16
2018-09-05T21:55:09.726Z,77.64
2018-09-05T21:57:38.082Z,78.55
2018-09-05T22:00:08.526Z,78.00
2018-09-05T22:02:36.918Z,77.91
2018-09-05T22:05:05.418Z,78.17
2018-09-05T22:07:33.735Z,78.55
2018-09-05T22:10:02.134Z,78.10
2018-09-05T22:12:30.529Z,79.00
2018-09-05T22:14:58.864Z,78.31
2018-09-05T22:17:27.190Z,79.14
2018-09-05T22:19:55.588Z,78.92
2018-09-05T22:22:23.838Z,78.52
2018-09-05T22:24:52.153Z,78.97
2018-09-05T22:27:20.444Z,79.82
2018-09-05T22:29:48.708Z,80.04
2018-09-05T22:32:17.063Z,79.60
2018-09-05T22:34:45.344Z,79.81
2018-09-05T22:37:13.592Z,80.40
2018-09-05T22:39:41.883Z,79.36
2018-09-05T22:42:12.336Z,79.47
2018-09-05T22:44:52.558Z,80.08
2018-09-05T22:47:32.185Z,79.93
2018-09-05T22:50:17.192Z,79.95
2018-09-05T22:53:14.728Z,79.82
2018-09-05T22:58:02.694Z,80.42
2018-09-05T23:00:45.690Z,81.60
2018-09-05T23:03:24.395Z,82.88
2018-09-05T23:08:08.794Z,83.13
2018-09-05T23:10:48.433Z,81.61
2018-09-05T23:14:26.592Z,81.48
2018-09-05T23:19:42.006Z,81.02
2018-09-05T23:22:10.285Z,81.89
2018-09-05T23:24:38.588Z,82.70
2018-09-05T23:27:06.919Z,82.38
2018-09-05T23:29:35.169Z,81.81
2018-09-05T23:32:03.462Z,81.76
2018-09-05T23:34:31.720Z,81.58
2018-09-05T23:37:00.062Z,82.27
2018-09-05T23:39:28.394Z,81.66
2018-09-05T23:41:56.718Z,82.15
2018-09-05T23:44:24.993Z,82.58
2018-09-05T23:46:53.314Z,82.90
2018-09-05T23:49:21.574Z,83.64
2018-09-05T23:51:49.843Z,82.90
2018-09-05T23:54:18.211Z,83.42
2018-09-05T23:56:46.501Z,82.89
2018-09-05T23:59:14.793Z,82.09
